createdAt,value
2018-10-19T00:02:02.491Z,3.57
2018-10-19T00:04:30.966Z,3.87
2018-10-19T00:06:59.677Z,3.90
2018-10-19T00:09:28.097Z,4.20
2018-10-19T00:11:56.520Z,3.77
2018-10-19T00:14:25.412Z,4.10
2018-10-19T00:16:53.951Z,3.83
2018-10-19T00:19:22.411Z,3.43
2018-10-19T00:21:51.240Z,3.90
2018-10-19T00:24:20.138Z,3.40
2018-10-19T00:26:48.730Z,3.17
2018-10-19T00:29:17.218Z,3.50
2018-10-19T00:31:46.051Z,3.83
2018-10-19T00:34:14.644Z,3.67
2018-10-19T00:36:43.149Z,2.67
2018-10-19T00:39:12.892Z,3.80
2018-10-19T00:41:41.929Z,3.17
2018-10-19T00:44:10.885Z,4.70
2018-10-19T00:46:39.460Z,3.13
2018-10-19T00:49:07.928Z,3.00
2018-10-19T00:51:36.710Z,3.27
2018-10-19T00:54:05.606Z,2.60
2018-10-19T00:56:34.390Z,2.87
2018-10-19T00:59:02.818Z,2.53
2018-10-19T01:01:31.530Z,2.43
2018-10-19T01:04:00.528Z,2.27
2018-10-19T01:06:28.945Z,2.50
2018-10-19T01:08:57.638Z,2.57
2018-10-19T01:11:26.059Z,1.70
2018-10-19T01:13:54.512Z,2.50
2018-10-19T01:16:22.982Z,2.13
2018-10-19T01:18:51.672Z,2.67
2018-10-19T01:21:20.386Z,2.10
2018-10-19T01:23:48.830Z,1.70
2018-10-19T01:26:17.329Z,1.93
2018-10-19T01:28:45.836Z,2.67
2018-10-19T01:31:14.213Z,2.43
2018-10-19T01:33:42.651Z,2.50
2018-10-19T01:36:11.018Z,2.03
2018-10-19T01:38:39.552Z,1.37
2018-10-19T01:41:08.297Z,1.97
2018-10-19T01:43:36.688Z,2.03
2018-10-19T01:46:05.292Z,1.90
2018-10-19T01:48:33.748Z,1.70
2018-10-19T01:51:02.224Z,2.03
2018-10-19T01:53:30.773Z,2.60
2018-10-19T01:55:59.193Z,1.47
2018-10-19T01:58:28.152Z,2.00
2018-10-19T02:00:56.743Z,1.20
2018-10-19T02:03:25.362Z,1.73
2018-10-19T02:05:54.293Z,1.80
2018-10-19T02:08:22.694Z,1.97
2018-10-19T02:10:51.418Z,1.60
2018-10-19T02:13:19.829Z,1.40
2018-10-19T02:15:48.385Z,1.80
2018-10-19T02:18:17.030Z,1.77
2018-10-19T02:20:45.745Z,1.50
2018-10-19T02:23:14.517Z,2.10
2018-10-19T02:25:43.407Z,1.40
2018-10-19T02:28:11.825Z,2.17
2018-10-19T02:30:40.317Z,1.50
2018-10-19T02:33:08.756Z,1.57
2018-10-19T02:35:37.393Z,1.43
2018-10-19T02:38:06.392Z,1.90
2018-10-19T02:40:34.899Z,1.80
2018-10-19T02:43:03.580Z,2.03
2018-10-19T02:45:34.340Z,1.70
2018-10-19T02:48:03.469Z,2.07
2018-10-19T02:50:32.221Z,2.60
2018-10-19T02:53:00.635Z,1.60
2018-10-19T02:55:29.236Z,1.67
2018-10-19T02:57:57.650Z,1.60
2018-10-19T03:00:26.297Z,1.80
2018-10-19T03:02:54.832Z,1.67
2018-10-19T03:05:23.194Z,2.27
2018-10-19T03:07:51.889Z,2.77
2018-10-19T03:10:20.257Z,2.07
2018-10-19T03:12:48.824Z,2.07
2018-10-19T03:15:17.265Z,1.70
2018-10-19T03:17:46.053Z,3.07
2018-10-19T03:20:14.814Z,2.50
2018-10-19T03:22:43.298Z,2.90
2018-10-19T03:25:12.206Z,2.30
2018-10-19T03:27:40.750Z,2.50
2018-10-19T03:30:09.733Z,2.60
2018-10-19T03:32:38.153Z,2.80
2018-10-19T03:35:06.896Z,3.57
2018-10-19T03:37:35.431Z,2.87
2018-10-19T03:40:04.130Z,3.00
2018-10-19T03:42:32.834Z,2.70
2018-10-19T03:45:01.348Z,2.70
2018-10-19T03:47:29.677Z,3.03
2018-10-19T03:49:58.339Z,3.17
2018-10-19T03:52:27.055Z,2.50
2018-10-19T03:54:55.696Z,3.10
2018-10-19T03:57:24.374Z,2.80
2018-10-19T03:59:53.171Z,3.10
2018-10-19T04:02:21.922Z,2.47
2018-10-19T04:04:50.394Z,2.30
2018-10-19T04:07:18.856Z,3.03
2018-10-19T04:09:47.248Z,2.73
2018-10-19T04:12:15.734Z,3.30
2018-10-19T04:14:44.121Z,2.60
2018-10-19T04:17:12.674Z,2.43
2018-10-19T04:19:41.024Z,2.10
2018-10-19T04:22:09.906Z,2.40
2018-10-19T04:24:38.593Z,2.40
2018-10-19T04:27:07.205Z,3.03
2018-10-19T04:29:35.636Z,1.90
2018-10-19T04:32:04.522Z,2.40
2018-10-19T04:34:33.199Z,2.30
2018-10-19T04:37:04.156Z,2.50
2018-10-19T04:39:33.428Z,2.50
2018-10-19T04:42:02.417Z,2.23
2018-10-19T04:44:31.075Z,2.73
2018-10-19T04:46:59.563Z,1.87
2018-10-19T04:49:28.294Z,2.17
2018-10-19T04:51:57.087Z,1.90
2018-10-19T04:54:25.914Z,2.77
2018-10-19T04:56:54.418Z,2.07
2018-10-19T04:59:23.077Z,2.00
2018-10-19T05:01:51.961Z,2.53
2018-10-19T05:04:20.398Z,2.40
2018-10-19T05:06:49.209Z,2.70
2018-10-19T05:09:17.565Z,2.20
2018-10-19T05:11:46.255Z,1.90
2018-10-19T05:14:14.946Z,2.23
2018-10-19T05:16:43.398Z,1.70
2018-10-19T05:19:12.125Z,2.03
2018-10-19T05:21:40.761Z,1.97
2018-10-19T05:24:09.221Z,2.20
2018-10-19T05:26:37.942Z,2.33
2018-10-19T05:29:06.516Z,2.47
2018-10-19T05:31:35.168Z,1.70
2018-10-19T05:34:03.864Z,2.03
2018-10-19T05:36:32.357Z,1.80
2018-10-19T05:39:00.886Z,2.07
2018-10-19T05:41:29.480Z,2.17
2018-10-19T05:43:58.093Z,1.73
2018-10-19T05:46:26.510Z,1.60
2018-10-19T05:48:54.958Z,1.90
2018-10-19T05:51:23.668Z,1.63
2018-10-19T05:53:52.377Z,2.00
2018-10-19T05:56:20.862Z,1.77
2018-10-19T05:58:49.312Z,1.73
2018-10-19T06:01:17.710Z,1.87
2018-10-19T06:03:46.205Z,1.90
2018-10-19T06:06:14.658Z,1.50
2018-10-19T06:08:43.130Z,1.60
2018-10-19T06:11:12.018Z,1.83
2018-10-19T06:13:40.442Z,1.70
2018-10-19T06:16:08.982Z,1.80
2018-10-19T06:18:37.718Z,1.40
2018-10-19T06:21:06.441Z,1.80
2018-10-19T06:23:34.880Z,2.00
2018-10-19T06:26:03.426Z,2.70
2018-10-19T06:28:32.104Z,2.33
2018-10-19T06:31:00.694Z,1.73
2018-10-19T06:33:29.509Z,1.80
2018-10-19T06:35:57.953Z,1.77
2018-10-19T06:38:26.671Z,1.67
2018-10-19T06:40:55.124Z,2.03
2018-10-19T06:43:23.582Z,1.67
2018-10-19T06:45:52.085Z,2.30
2018-10-19T06:48:20.511Z,1.43
2018-10-19T06:50:48.921Z,1.47
2018-10-19T06:53:17.537Z,1.77
2018-10-19T06:55:45.957Z,1.57
2018-10-19T06:58:14.417Z,1.37
2018-10-19T07:00:43.147Z,2.03
2018-10-19T07:03:11.607Z,2.07
2018-10-19T07:05:40.068Z,1.60
2018-10-19T07:08:08.626Z,2.13
2018-10-19T07:10:36.969Z,2.00
2018-10-19T07:13:05.459Z,1.73
2018-10-19T07:15:33.903Z,2.47
2018-10-19T07:18:02.672Z,1.90
2018-10-19T07:20:31.117Z,2.20
2018-10-19T07:22:59.669Z,2.27
2018-10-19T07:25:28.081Z,1.73
2018-10-19T07:27:57.301Z,2.23
2018-10-19T07:30:25.806Z,1.70
2018-10-19T07:32:54.341Z,2.80
2018-10-19T07:35:22.921Z,2.23
2018-10-19T07:37:51.425Z,1.80
2018-10-19T07:40:20.164Z,2.43
2018-10-19T07:42:48.920Z,2.37
2018-10-19T07:45:17.366Z,1.83
2018-10-19T07:47:46.116Z,2.67
2018-10-19T07:50:16.056Z,2.30
2018-10-19T07:52:44.618Z,1.97
2018-10-19T07:55:13.277Z,2.00
2018-10-19T07:57:41.750Z,2.17
2018-10-19T08:00:10.787Z,2.67
2018-10-19T08:02:39.278Z,2.70
2018-10-19T08:05:08.745Z,2.60
2018-10-19T08:07:37.678Z,2.97
2018-10-19T08:10:07.439Z,2.53
2018-10-19T08:12:35.884Z,2.83
2018-10-19T08:15:05.397Z,2.20
2018-10-19T08:17:34.102Z,3.00
2018-10-19T08:20:02.606Z,3.20
2018-10-19T08:22:30.934Z,3.27
2018-10-19T08:24:59.628Z,3.73
2018-10-19T08:27:28.312Z,3.77
2018-10-19T08:29:56.740Z,3.70
2018-10-19T08:32:25.407Z,3.23
2018-10-19T08:34:53.852Z,3.20
2018-10-19T08:37:22.496Z,3.37
2018-10-19T08:39:50.981Z,3.07
2018-10-19T08:42:19.809Z,3.80
2018-10-19T08:44:48.275Z,4.30
2018-10-19T08:47:16.784Z,4.30
2018-10-19T08:49:45.639Z,4.30
2018-10-19T08:52:14.539Z,3.80
2018-10-19T08:54:43.494Z,4.17
2018-10-19T08:57:11.895Z,4.00
2018-10-19T08:59:41.495Z,4.77
2018-10-19T09:02:09.996Z,4.20
2018-10-19T09:04:38.662Z,4.43
2018-10-19T09:07:07.040Z,4.90
2018-10-19T09:09:35.705Z,4.40
2018-10-19T09:12:04.196Z,4.07
2018-10-19T09:14:54.651Z,4.20
2018-10-19T09:17:24.152Z,6.00
2018-10-19T09:19:52.889Z,5.57
2018-10-19T09:22:21.584Z,5.00
2018-10-19T09:24:50.449Z,4.83
2018-10-19T09:27:19.021Z,4.57
2018-10-19T09:29:47.624Z,5.00
2018-10-19T09:32:16.654Z,5.40
2018-10-19T09:34:45.342Z,5.87
2018-10-19T09:37:14.590Z,6.20
2018-10-19T09:39:43.080Z,5.77
2018-10-19T09:42:11.945Z,6.20
2018-10-19T09:44:40.557Z,6.93
2018-10-19T09:47:09.080Z,6.47
2018-10-19T09:49:37.468Z,6.33
2018-10-19T09:52:06.174Z,5.67
2018-10-19T09:54:34.834Z,6.13
2018-10-19T09:57:03.839Z,6.17
2018-10-19T09:59:32.263Z,6.13
2018-10-19T10:02:01.227Z,5.70
2018-10-19T10:04:29.681Z,5.93
2018-10-19T10:06:58.310Z,6.00
2018-10-19T10:09:26.750Z,6.00
2018-10-19T10:11:55.120Z,5.63
2018-10-19T10:14:24.047Z,5.57
2018-10-19T10:16:52.811Z,5.93
2018-10-19T10:19:21.415Z,6.63
2018-10-19T10:21:50.347Z,6.03
2018-10-19T10:24:19.234Z,5.83
2018-10-19T10:26:47.944Z,6.07
2018-10-19T10:29:16.504Z,6.03
2018-10-19T10:31:45.245Z,5.73
2018-10-19T10:34:13.712Z,6.33
2018-10-19T10:36:42.050Z,5.33
2018-10-19T10:39:12.791Z,7.07
2018-10-19T10:41:41.114Z,5.57
2018-10-19T10:44:09.697Z,6.47
2018-10-19T10:46:38.583Z,5.73
2018-10-19T10:49:07.309Z,6.20
2018-10-19T10:51:35.751Z,6.23
2018-10-19T10:54:04.494Z,6.73
2018-10-19T10:56:32.888Z,5.87
2018-10-19T10:59:01.327Z,6.10
2018-10-19T11:01:30.223Z,6.40
2018-10-19T11:03:58.734Z,6.67
2018-10-19T11:06:27.159Z,6.20
2018-10-19T11:08:55.558Z,5.93
2018-10-19T11:11:24.016Z,6.47
2018-10-19T11:13:52.554Z,5.80
2018-10-19T11:16:20.992Z,6.30
2018-10-19T11:18:49.410Z,7.33
2018-10-19T11:21:17.881Z,6.17
2018-10-19T11:23:46.318Z,5.97
2018-10-19T11:26:14.696Z,5.87
2018-10-19T11:28:43.190Z,7.30
2018-10-19T11:31:11.730Z,6.77
2018-10-19T11:33:40.105Z,6.37
2018-10-19T11:36:08.788Z,7.40
2018-10-19T11:38:37.181Z,7.37
2018-10-19T11:41:05.747Z,6.77
2018-10-19T11:43:34.139Z,6.83
2018-10-19T11:46:02.645Z,7.00
2018-10-19T11:48:31.148Z,8.07
2018-10-19T11:51:00.702Z,6.93
2018-10-19T11:53:29.713Z,7.20
2018-10-19T11:55:58.140Z,6.67
2018-10-19T11:58:26.797Z,7.23
2018-10-19T12:00:55.278Z,6.97
2018-10-19T12:03:23.761Z,8.30
2018-10-19T12:05:52.149Z,6.83
2018-10-19T12:08:20.601Z,6.90
2018-10-19T12:10:49.139Z,7.37
2018-10-19T12:13:17.525Z,7.27
2018-10-19T12:15:46.241Z,7.43
2018-10-19T12:18:14.782Z,6.53
2018-10-19T12:20:44.547Z,7.50
2018-10-19T12:23:13.394Z,7.40
2018-10-19T12:25:42.491Z,7.47
2018-10-19T12:28:18.271Z,7.00
2018-10-19T12:30:46.782Z,6.50
2018-10-19T12:33:15.457Z,7.00
2018-10-19T12:35:44.191Z,7.30
2018-10-19T12:38:12.927Z,6.87
2018-10-19T12:40:41.365Z,7.30
2018-10-19T12:43:10.055Z,5.87
2018-10-19T12:46:48.194Z,6.50
2018-10-19T12:49:18.415Z,7.43
2018-10-19T12:51:46.852Z,6.07
2018-10-19T12:54:15.577Z,6.53
2018-10-19T12:56:44.251Z,6.30
2018-10-19T12:59:12.726Z,6.03
2018-10-19T13:01:41.089Z,6.47
2018-10-19T13:04:10.341Z,6.10
2018-10-19T13:06:38.848Z,5.53
2018-10-19T13:09:10.296Z,6.47
2018-10-19T13:11:38.910Z,6.80
2018-10-19T13:14:07.384Z,5.83
2018-10-19T13:16:35.880Z,6.27
2018-10-19T13:19:06.587Z,6.73
2018-10-19T13:21:35.054Z,6.23
2018-10-19T13:24:03.533Z,6.30
2018-10-19T13:26:32.318Z,6.63
2018-10-19T13:29:01.078Z,5.90
2018-10-19T13:31:29.584Z,5.67
2018-10-19T13:33:58.072Z,5.67
2018-10-19T13:36:26.484Z,5.80
2018-10-19T13:38:54.968Z,6.00
2018-10-19T13:41:23.414Z,6.67
2018-10-19T13:43:51.818Z,6.07
2018-10-19T13:46:20.308Z,6.13
2018-10-19T13:48:49.037Z,6.37
2018-10-19T13:51:17.725Z,5.67
2018-10-19T13:53:46.064Z,6.40
2018-10-19T13:56:14.452Z,5.70
2018-10-19T13:58:42.889Z,6.60
2018-10-19T14:01:11.546Z,6.40
2018-10-19T14:03:39.942Z,5.83
2018-10-19T14:06:08.897Z,5.90
2018-10-19T14:08:37.351Z,6.03
2018-10-19T14:11:06.454Z,5.73
2018-10-19T14:13:34.919Z,7.27
2018-10-19T14:16:03.658Z,6.40
2018-10-19T14:18:32.112Z,5.50
2018-10-19T14:21:01.102Z,5.97
2018-10-19T14:23:29.540Z,6.23
2018-10-19T14:25:57.925Z,6.03
2018-10-19T14:28:26.783Z,5.47
2018-10-19T14:30:55.173Z,6.60
2018-10-19T14:33:23.678Z,6.33
2018-10-19T14:35:52.133Z,5.97
2018-10-19T14:38:20.984Z,6.67
2018-10-19T14:40:49.428Z,6.20
2018-10-19T14:43:18.044Z,6.23
2018-10-19T14:45:46.454Z,6.07
2018-10-19T14:48:14.817Z,6.00
2018-10-19T14:50:43.177Z,6.27
2018-10-19T14:53:11.636Z,6.10
2018-10-19T14:55:40.003Z,5.77
2018-10-19T14:58:08.293Z,6.97
2018-10-19T15:00:36.712Z,6.23
2018-10-19T15:03:05.252Z,6.13
2018-10-19T15:05:34.604Z,5.87
2018-10-19T15:08:03.315Z,5.50
2018-10-19T15:10:32.255Z,5.97
2018-10-19T15:13:00.362Z,5.80
2018-10-19T15:15:28.788Z,6.30
2018-10-19T15:17:57.172Z,6.43
2018-10-19T15:20:25.501Z,6.10
2018-10-19T15:22:53.924Z,5.97
2018-10-19T15:25:22.300Z,5.73
2018-10-19T15:27:51.036Z,6.17
2018-10-19T15:30:20.041Z,5.70
2018-10-19T15:32:48.741Z,6.10
2018-10-19T15:35:17.187Z,6.30
2018-10-19T15:37:45.615Z,5.80
2018-10-19T15:40:14.029Z,5.77
2018-10-19T15:42:42.489Z,6.30
2018-10-19T15:45:12.612Z,6.17
2018-10-19T15:47:41.045Z,6.00
2018-10-19T15:50:09.862Z,5.83
2018-10-19T15:52:38.363Z,6.20
2018-10-19T15:55:07.103Z,5.93
2018-10-19T15:57:35.545Z,5.77
2018-10-19T16:00:04.103Z,7.27
2018-10-19T16:02:32.687Z,5.67
2018-10-19T16:05:01.194Z,6.20
2018-10-19T16:07:29.622Z,6.53
2018-10-19T16:09:58.018Z,4.97
2018-10-19T16:12:26.453Z,5.60
2018-10-19T16:14:55.265Z,5.27
2018-10-19T16:17:23.672Z,6.40
2018-10-19T16:19:52.122Z,5.53
2018-10-19T16:22:20.983Z,5.10
2018-10-19T16:24:49.437Z,5.37
2018-10-19T16:27:18.203Z,6.17
2018-10-19T16:29:46.838Z,5.60
2018-10-19T16:32:15.878Z,6.07
2018-10-19T16:34:44.301Z,5.23
2018-10-19T16:37:12.657Z,5.37
2018-10-19T16:39:41.226Z,5.03
2018-10-19T16:42:09.724Z,5.43
2018-10-19T16:44:38.440Z,6.20
2018-10-19T16:47:07.321Z,5.43
2018-10-19T16:49:35.746Z,5.80
2018-10-19T16:52:04.620Z,5.23
2018-10-19T16:54:33.241Z,5.63
2018-10-19T16:57:01.684Z,5.20
2018-10-19T16:59:30.385Z,5.80
2018-10-19T17:01:59.025Z,5.30
2018-10-19T17:04:27.565Z,6.03
2018-10-19T17:06:56.001Z,5.23
2018-10-19T17:09:24.465Z,6.33
2018-10-19T17:11:53.965Z,5.53
2018-10-19T17:14:22.738Z,5.93
2018-10-19T17:16:51.630Z,5.20
2018-10-19T17:19:20.616Z,5.40
2018-10-19T17:21:49.230Z,5.87
2018-10-19T17:24:18.623Z,6.07
2018-10-19T17:26:47.210Z,6.03
2018-10-19T17:29:16.137Z,5.37
2018-10-19T17:31:44.772Z,5.27
2018-10-19T17:34:13.186Z,5.03
2018-10-19T17:36:43.978Z,5.83
2018-10-19T17:39:13.626Z,5.90
2018-10-19T17:41:42.414Z,5.70
2018-10-19T17:44:11.720Z,6.00
2018-10-19T17:46:40.654Z,5.87
2018-10-19T17:49:09.264Z,5.70
2018-10-19T17:51:39.247Z,6.20
2018-10-19T17:54:07.839Z,7.07
2018-10-19T17:56:36.632Z,6.17
2018-10-19T17:59:05.505Z,6.13
2018-10-19T18:01:34.022Z,6.43
2018-10-19T18:04:08.482Z,7.30
2018-10-19T18:06:37.183Z,8.00
2018-10-19T18:09:09.050Z,7.10
2018-10-19T18:11:37.451Z,6.63
2018-10-19T18:14:05.881Z,6.90
2018-10-19T18:16:34.441Z,6.93
2018-10-19T18:19:03.091Z,6.77
2018-10-19T18:21:31.598Z,7.90
2018-10-19T18:24:00.337Z,8.50
2018-10-19T18:26:28.795Z,9.40
2018-10-19T18:28:57.246Z,8.13
2018-10-19T18:31:25.566Z,8.83
2018-10-19T18:33:54.249Z,9.20
2018-10-19T18:36:22.995Z,8.63
2018-10-19T18:38:51.397Z,8.63
2018-10-19T18:41:19.957Z,8.83
2018-10-19T18:43:48.386Z,9.33
2018-10-19T18:46:16.757Z,9.50
2018-10-19T18:48:45.571Z,10.03
2018-10-19T18:51:13.978Z,9.97
2018-10-19T18:53:42.639Z,9.70
2018-10-19T18:56:11.342Z,10.37
2018-10-19T18:58:39.732Z,10.40
2018-10-19T19:01:08.218Z,9.43
2018-10-19T19:03:36.661Z,10.30
2018-10-19T19:06:05.555Z,10.17
2018-10-19T19:08:33.973Z,10.80
2018-10-19T19:11:02.843Z,9.90
2018-10-19T19:13:32.287Z,10.43
2018-10-19T19:16:01.193Z,9.83
2018-10-19T19:18:29.634Z,11.30
2018-10-19T19:20:58.091Z,10.23
2018-10-19T19:23:26.746Z,10.33
2018-10-19T19:26:00.448Z,10.67
2018-10-19T19:28:28.989Z,10.03
2018-10-19T19:30:57.475Z,10.90
2018-10-19T19:33:31.348Z,10.77
2018-10-19T19:35:59.826Z,11.43
2018-10-19T19:38:28.320Z,11.77
2018-10-19T19:41:02.522Z,11.53
2018-10-19T19:43:30.898Z,12.00
2018-10-19T19:45:59.402Z,11.67
2018-10-19T19:48:33.291Z,10.27
2018-10-19T19:51:02.173Z,11.97
2018-10-19T19:53:30.660Z,11.27
2018-10-19T19:55:59.693Z,10.37
2018-10-19T19:58:28.110Z,11.50
2018-10-19T20:00:57.149Z,11.37
2018-10-19T20:03:25.574Z,12.10
2018-10-19T20:05:54.458Z,10.77
2018-10-19T20:08:22.954Z,10.60
2018-10-19T20:10:51.425Z,11.10
2018-10-19T20:13:20.138Z,10.93
2018-10-19T20:15:48.702Z,11.53
2018-10-19T20:18:17.600Z,11.33
2018-10-19T20:20:45.978Z,11.53
2018-10-19T20:23:15.602Z,10.90
2018-10-19T20:25:44.091Z,11.77
2018-10-19T20:28:14.411Z,12.23
2018-10-19T20:30:42.804Z,11.67
2018-10-19T20:33:11.576Z,11.20
2018-10-19T20:35:40.050Z,10.80
2018-10-19T20:38:08.565Z,10.90
2018-10-19T20:40:37.005Z,10.93
2018-10-19T20:43:06.337Z,10.80
2018-10-19T20:45:34.908Z,11.10
2018-10-19T20:48:03.427Z,11.47
2018-10-19T20:50:31.878Z,11.17
2018-10-19T20:53:00.486Z,11.20
2018-10-19T20:55:29.591Z,10.13
2018-10-19T20:57:58.278Z,12.27
2018-10-19T21:00:26.725Z,11.23
2018-10-19T21:02:57.147Z,12.07
2018-10-19T21:05:25.607Z,12.03
2018-10-19T21:07:54.043Z,13.80
2018-10-19T21:10:22.454Z,12.03
2018-10-19T21:12:51.222Z,12.37
2018-10-19T21:15:19.771Z,12.97
2018-10-19T21:17:48.610Z,11.63
2018-10-19T21:20:18.018Z,12.40
2018-10-19T21:22:48.698Z,11.97
2018-10-19T21:25:17.433Z,12.13
2018-10-19T21:27:46.250Z,13.27
2018-10-19T21:30:14.877Z,13.37
2018-10-19T21:32:44.206Z,12.43
2018-10-19T21:35:13.082Z,12.03
2018-10-19T21:37:41.569Z,12.13
2018-10-19T21:40:10.017Z,12.13
2018-10-19T21:42:38.786Z,12.53
2018-10-19T21:45:08.220Z,13.00
2018-10-19T21:47:36.746Z,13.40
2018-10-19T21:50:06.143Z,12.83
2018-10-19T21:52:34.782Z,12.13
2018-10-19T21:55:03.310Z,11.83
2018-10-19T21:57:31.746Z,12.33
2018-10-19T22:00:00.188Z,12.87
2018-10-19T22:02:28.646Z,12.60
2018-10-19T22:04:57.207Z,12.00
2018-10-19T22:07:26.001Z,13.33
2018-10-19T22:09:54.407Z,14.40
2018-10-19T22:12:22.864Z,15.37
2018-10-19T22:14:51.409Z,13.13
2018-10-19T22:17:20.068Z,12.33
2018-10-19T22:19:48.748Z,13.43
2018-10-19T22:22:17.189Z,13.90
2018-10-19T22:24:45.671Z,13.70
2018-10-19T22:27:14.294Z,13.33
2018-10-19T22:29:42.795Z,13.80
2018-10-19T22:32:11.207Z,13.03
2018-10-19T22:34:40.106Z,13.40
2018-10-19T22:37:08.933Z,14.40
2018-10-19T22:39:37.447Z,12.97
2018-10-19T22:42:06.859Z,12.10
2018-10-19T22:44:36.729Z,13.03
2018-10-19T22:47:06.005Z,13.40
2018-10-19T22:49:34.357Z,14.00
2018-10-19T22:52:02.829Z,13.77
2018-10-19T22:54:31.559Z,14.77
2018-10-19T22:57:00.039Z,15.40
2018-10-19T22:59:28.452Z,13.07
2018-10-19T23:01:56.862Z,14.37
2018-10-19T23:04:25.287Z,13.83
2018-10-19T23:06:53.854Z,14.30
2018-10-19T23:09:22.532Z,18.17
2018-10-19T23:11:51.033Z,16.07
2018-10-19T23:14:19.460Z,16.37
2018-10-19T23:16:47.960Z,18.07
2018-10-19T23:19:16.783Z,18.57
2018-10-19T23:21:45.235Z,18.03
2018-10-19T23:24:13.637Z,17.73
2018-10-19T23:26:42.489Z,15.80
2018-10-19T23:29:10.951Z,16.47
2018-10-19T23:31:39.584Z,15.53
2018-10-19T23:34:08.061Z,14.67
2018-10-19T23:36:36.913Z,13.73
2018-10-19T23:39:07.758Z,14.33
2018-10-19T23:41:36.724Z,14.03
2018-10-19T23:44:05.322Z,14.17
2018-10-19T23:46:33.836Z,15.27
2018-10-19T23:49:02.493Z,14.50
2018-10-19T23:51:30.964Z,13.30
2018-10-19T23:54:00.090Z,13.87
2018-10-19T23:56:28.622Z,14.83
2018-10-19T23:58:57.329Z,13.93
